createdAt,value
2017-08-27T00:00:04.074Z,10.50
2017-08-27T00:02:30.261Z,9.38
2017-08-27T00:04:56.415Z,12.27
2017-08-27T00:07:22.583Z,12.65
2017-08-27T00:09:48.739Z,12.63
2017-08-27T00:12:14.926Z,10.85
2017-08-27T00:14:41.101Z,10.32
2017-08-27T00:17:07.258Z,11.48
2017-08-27T00:19:33.431Z,11.65
2017-08-27T00:21:59.606Z,10.52
2017-08-27T00:24:25.768Z,13.00
2017-08-27T00:26:51.915Z,12.27
2017-08-27T00:29:18.082Z,11.75
2017-08-27T00:31:44.249Z,16.70
2017-08-27T00:34:10.414Z,14.45
2017-08-27T00:36:36.580Z,24.10
2017-08-27T00:39:02.733Z,19.35
2017-08-27T00:41:28.907Z,19.48
2017-08-27T00:43:55.071Z,23.05
2017-08-27T00:46:21.249Z,18.65
2017-08-27T00:48:47.420Z,16.58
2017-08-27T00:51:13.577Z,15.95
2017-08-27T00:53:39.736Z,12.27
2017-08-27T00:56:05.885Z,11.95
2017-08-27T00:58:32.053Z,11.15
2017-08-27T01:00:58.210Z,10.43
2017-08-27T01:03:24.361Z,10.57
2017-08-27T01:05:50.548Z,9.45
2017-08-27T01:08:16.717Z,9.45
2017-08-27T01:10:42.871Z,9.68
2017-08-27T01:13:09.047Z,10.82
2017-08-27T01:15:35.207Z,9.63
2017-08-27T01:18:01.370Z,11.43
2017-08-27T01:20:27.533Z,10.88
2017-08-27T01:22:53.692Z,10.65
2017-08-27T01:25:19.866Z,9.77
2017-08-27T01:27:46.030Z,9.70
2017-08-27T01:30:12.204Z,10.60
2017-08-27T01:32:38.373Z,10.48
2017-08-27T01:35:04.538Z,10.35
2017-08-27T01:37:30.682Z,13.52
2017-08-27T01:39:56.845Z,12.88
2017-08-27T01:42:22.991Z,13.27
2017-08-27T01:44:49.151Z,13.23
2017-08-27T01:47:15.316Z,12.00
2017-08-27T01:49:41.461Z,11.98
2017-08-27T01:52:07.605Z,11.65
2017-08-27T01:54:33.751Z,12.30
2017-08-27T01:56:59.918Z,13.05
2017-08-27T01:59:26.066Z,13.27
2017-08-27T02:01:52.248Z,13.27
2017-08-27T02:04:18.405Z,12.13
2017-08-27T02:06:44.564Z,14.35
2017-08-27T02:09:10.738Z,13.75
2017-08-27T02:11:36.900Z,13.50
2017-08-27T02:14:03.050Z,12.90
2017-08-27T02:16:29.202Z,12.25
2017-08-27T02:18:55.385Z,11.55
2017-08-27T02:21:21.548Z,12.65
2017-08-27T02:23:47.732Z,11.25
2017-08-27T02:26:13.891Z,14.68
2017-08-27T02:28:40.051Z,10.93
2017-08-27T02:31:06.214Z,13.45
2017-08-27T02:33:32.390Z,14.57
2017-08-27T02:35:58.542Z,16.62
2017-08-27T02:38:24.705Z,15.85
2017-08-27T02:40:50.882Z,16.95
2017-08-27T02:43:17.049Z,17.62
2017-08-27T02:45:43.211Z,15.35
2017-08-27T02:48:09.360Z,17.48
2017-08-27T02:50:35.527Z,18.35
2017-08-27T02:53:01.696Z,16.25
2017-08-27T02:55:27.851Z,15.00
2017-08-27T02:57:54.005Z,14.57
2017-08-27T03:00:20.165Z,13.45
2017-08-27T03:02:46.327Z,15.80
2017-08-27T03:05:12.495Z,15.23
2017-08-27T03:07:39.231Z,16.48
2017-08-27T03:10:05.511Z,13.25
2017-08-27T03:12:31.681Z,13.10
2017-08-27T03:14:57.837Z,13.57
2017-08-27T03:17:23.985Z,13.25
2017-08-27T03:19:50.152Z,12.57
2017-08-27T03:22:16.307Z,13.50
2017-08-27T03:24:42.479Z,14.20
2017-08-27T03:27:08.629Z,12.98
2017-08-27T03:29:34.803Z,14.05
2017-08-27T03:32:00.962Z,14.18
2017-08-27T03:34:27.135Z,14.35
2017-08-27T03:36:53.306Z,12.57
2017-08-27T03:39:19.487Z,12.45
2017-08-27T03:41:45.670Z,11.55
2017-08-27T03:44:11.834Z,13.05
2017-08-27T03:46:38.011Z,12.40
2017-08-27T03:49:04.167Z,12.90
2017-08-27T03:51:31.321Z,12.52
2017-08-27T03:53:57.485Z,12.57
2017-08-27T03:56:23.646Z,12.27
2017-08-27T03:58:49.806Z,12.37
2017-08-27T04:01:15.972Z,11.85
2017-08-27T04:03:42.135Z,14.95
2017-08-27T04:06:08.292Z,12.02
2017-08-27T04:08:34.445Z,11.52
2017-08-27T04:11:00.621Z,11.23
2017-08-27T04:13:26.779Z,10.88
2017-08-27T04:15:52.935Z,11.90
2017-08-27T04:18:19.100Z,12.27
2017-08-27T04:20:45.271Z,11.30
2017-08-27T04:23:11.445Z,12.95
2017-08-27T04:25:37.612Z,11.52
2017-08-27T04:28:03.786Z,11.43
2017-08-27T04:30:29.938Z,10.65
2017-08-27T04:32:56.101Z,12.68
2017-08-27T04:35:22.315Z,11.80
2017-08-27T04:37:48.482Z,12.60
2017-08-27T04:40:14.649Z,12.02
2017-08-27T04:42:40.813Z,12.37
2017-08-27T04:45:06.967Z,10.82
2017-08-27T04:47:33.148Z,12.43
2017-08-27T04:49:59.314Z,9.77
2017-08-27T04:52:25.480Z,10.35
2017-08-27T04:54:51.634Z,10.23
2017-08-27T04:57:17.805Z,10.35
2017-08-27T04:59:43.974Z,11.18
2017-08-27T05:02:10.156Z,12.25
2017-08-27T05:04:36.323Z,13.23
2017-08-27T05:07:02.479Z,10.13
2017-08-27T05:09:28.647Z,10.80
2017-08-27T05:11:54.817Z,11.30
2017-08-27T05:14:20.967Z,11.20
2017-08-27T05:16:47.113Z,9.57
2017-08-27T05:19:13.293Z,9.45
2017-08-27T05:21:39.454Z,10.40
2017-08-27T05:24:05.607Z,10.70
2017-08-27T05:26:31.798Z,12.07
2017-08-27T05:28:57.979Z,10.50
2017-08-27T05:31:24.161Z,13.38
2017-08-27T05:33:50.343Z,10.63
2017-08-27T05:36:16.523Z,13.30
2017-08-27T05:38:42.686Z,15.70
2017-08-27T05:41:08.846Z,15.03
2017-08-27T05:43:35.004Z,13.13
2017-08-27T05:46:01.163Z,12.13
2017-08-27T05:48:27.327Z,10.03
2017-08-27T05:50:53.475Z,10.57
2017-08-27T05:53:19.653Z,11.23
2017-08-27T05:55:45.824Z,13.50
2017-08-27T05:58:12.023Z,14.50
2017-08-27T06:00:38.241Z,12.55
2017-08-27T06:03:04.390Z,12.30
2017-08-27T06:05:30.567Z,18.80
2017-08-27T06:07:56.736Z,13.77
2017-08-27T06:10:22.913Z,13.20
2017-08-27T06:12:49.106Z,14.13
2017-08-27T06:15:15.289Z,14.03
2017-08-27T06:17:41.458Z,11.63
2017-08-27T06:20:07.632Z,10.47
2017-08-27T06:22:33.817Z,12.33
2017-08-27T06:24:59.999Z,14.73
2017-08-27T06:27:26.148Z,10.73
2017-08-27T06:29:52.308Z,12.77
2017-08-27T06:32:18.459Z,16.60
2017-08-27T06:34:44.626Z,11.53
2017-08-27T06:37:10.793Z,8.97
2017-08-27T06:39:36.967Z,12.90
2017-08-27T06:42:03.114Z,12.87
2017-08-27T06:44:29.280Z,15.30
2017-08-27T06:46:55.446Z,19.50
2017-08-27T06:49:21.600Z,22.90
2017-08-27T06:51:47.773Z,30.53
2017-08-27T06:54:13.936Z,30.10
2017-08-27T06:56:40.086Z,17.30
2017-08-27T06:59:06.262Z,16.37
2017-08-27T07:01:32.447Z,15.80
2017-08-27T07:03:58.700Z,9.67
2017-08-27T07:06:24.938Z,8.40
2017-08-27T07:08:51.122Z,9.50
2017-08-27T07:11:17.303Z,39.67
2017-08-27T07:13:43.607Z,9.67
2017-08-27T07:16:09.779Z,11.37
2017-08-27T07:18:35.967Z,15.63
2017-08-27T07:21:02.114Z,12.83
2017-08-27T07:23:28.301Z,14.60
2017-08-27T07:25:54.478Z,12.97
2017-08-27T07:28:20.637Z,32.30
2017-08-27T07:30:46.791Z,15.07
2017-08-27T07:33:12.960Z,9.07
2017-08-27T07:35:39.109Z,13.40
2017-08-27T07:38:05.275Z,13.47
2017-08-27T07:40:31.456Z,10.50
2017-08-27T07:42:57.643Z,6.87
2017-08-27T07:45:23.826Z,5.90
2017-08-27T07:47:49.983Z,6.50
2017-08-27T07:50:16.173Z,4.97
2017-08-27T07:52:42.334Z,5.47
2017-08-27T07:55:08.491Z,4.70
2017-08-27T07:57:34.663Z,6.40
2017-08-27T08:00:00.816Z,5.50
2017-08-27T08:02:26.979Z,5.43
2017-08-27T08:04:53.161Z,6.40
2017-08-27T08:07:19.335Z,4.70
2017-08-27T08:09:45.511Z,8.10
2017-08-27T08:12:11.683Z,5.17
2017-08-27T08:14:37.840Z,5.23
2017-08-27T08:17:04.007Z,4.77
2017-08-27T08:19:30.174Z,4.43
2017-08-27T08:21:56.348Z,4.67
2017-08-27T08:24:22.521Z,4.40
2017-08-27T08:26:48.691Z,4.70
2017-08-27T08:29:14.868Z,5.10
2017-08-27T08:31:41.022Z,4.10
2017-08-27T08:34:07.196Z,3.43
2017-08-27T08:36:33.368Z,4.40
2017-08-27T08:38:59.531Z,4.20
2017-08-27T08:41:25.713Z,3.70
2017-08-27T08:43:51.895Z,4.40
2017-08-27T08:46:18.074Z,4.10
2017-08-27T08:48:44.261Z,4.90
2017-08-27T08:51:10.435Z,4.03
2017-08-27T08:53:36.616Z,4.20
2017-08-27T08:56:02.792Z,4.83
2017-08-27T08:58:28.960Z,4.17
2017-08-27T09:00:55.124Z,6.03
2017-08-27T09:03:21.301Z,4.57
2017-08-27T09:05:47.475Z,4.50
2017-08-27T09:08:13.642Z,4.00
2017-08-27T09:10:39.818Z,5.60
2017-08-27T09:13:05.962Z,3.63
2017-08-27T09:15:32.145Z,4.37
2017-08-27T09:17:58.318Z,3.47
2017-08-27T09:20:24.557Z,3.80
2017-08-27T09:22:50.732Z,3.70
2017-08-27T09:25:16.896Z,3.47
2017-08-27T09:27:43.083Z,3.80
2017-08-27T09:30:09.264Z,3.90
2017-08-27T09:32:35.422Z,4.10
2017-08-27T09:35:01.595Z,4.27
2017-08-27T09:37:27.781Z,4.37
2017-08-27T09:39:53.941Z,4.47
2017-08-27T09:42:20.127Z,4.23
2017-08-27T09:44:46.363Z,3.50
2017-08-27T09:47:12.514Z,4.13
2017-08-27T09:49:38.705Z,4.20
2017-08-27T09:52:04.882Z,4.30
2017-08-27T09:54:31.078Z,4.10
2017-08-27T09:56:57.245Z,3.67
2017-08-27T09:59:23.411Z,3.97
2017-08-27T10:01:49.582Z,3.73
2017-08-27T10:04:15.771Z,3.43
2017-08-27T10:06:41.935Z,4.30
2017-08-27T10:09:08.105Z,3.90
2017-08-27T10:11:34.313Z,4.23
2017-08-27T10:14:00.491Z,3.00
2017-08-27T10:16:26.679Z,3.73
2017-08-27T10:18:52.856Z,3.90
2017-08-27T10:21:19.033Z,3.27
2017-08-27T10:23:45.232Z,3.57
2017-08-27T10:26:11.402Z,3.43
2017-08-27T10:28:37.569Z,3.70
2017-08-27T10:31:03.728Z,3.10
2017-08-27T10:33:29.892Z,3.03
2017-08-27T10:35:56.074Z,3.47
2017-08-27T10:38:22.240Z,3.07
2017-08-27T10:40:48.421Z,3.30
2017-08-27T10:43:14.587Z,3.63
2017-08-27T10:45:40.742Z,3.00
2017-08-27T10:48:06.910Z,3.10
2017-08-27T10:50:33.734Z,2.77
2017-08-27T10:52:59.894Z,3.50
2017-08-27T10:55:26.069Z,2.80
2017-08-27T10:57:52.235Z,3.33
2017-08-27T11:00:18.412Z,3.70
2017-08-27T11:02:44.597Z,3.43
2017-08-27T11:05:10.777Z,2.80
2017-08-27T11:07:36.954Z,2.70
2017-08-27T11:10:03.116Z,3.90
2017-08-27T11:12:29.287Z,2.50
2017-08-27T11:14:55.461Z,2.67
2017-08-27T11:17:21.620Z,2.57
2017-08-27T11:19:47.794Z,2.80
2017-08-27T11:22:13.998Z,2.63
2017-08-27T11:24:40.254Z,2.30
2017-08-27T11:27:06.420Z,2.60
2017-08-27T11:29:32.607Z,3.10
2017-08-27T11:31:59.504Z,3.07
2017-08-27T11:34:25.756Z,3.00
2017-08-27T11:36:51.955Z,2.83
2017-08-27T11:39:18.232Z,3.10
2017-08-27T11:41:44.487Z,3.20
2017-08-27T11:44:10.690Z,3.23
2017-08-27T11:46:36.920Z,3.57
2017-08-27T11:49:03.146Z,2.73
2017-08-27T11:51:29.376Z,3.10
2017-08-27T11:53:55.590Z,2.93
2017-08-27T11:56:21.829Z,3.43
2017-08-27T11:58:48.056Z,2.30
2017-08-27T12:01:14.292Z,2.30
2017-08-27T12:03:40.536Z,2.70
2017-08-27T12:06:06.768Z,4.07
2017-08-27T12:08:32.988Z,3.17
2017-08-27T12:10:59.206Z,2.33
2017-08-27T12:13:25.454Z,3.90
2017-08-27T12:15:51.760Z,2.70
2017-08-27T12:18:18.040Z,2.80
2017-08-27T12:20:44.220Z,3.00
2017-08-27T12:23:11.390Z,3.30
2017-08-27T12:25:37.564Z,2.70
2017-08-27T12:28:03.753Z,3.10
2017-08-27T12:30:29.933Z,2.70
2017-08-27T12:32:56.129Z,2.57
2017-08-27T12:35:22.306Z,3.00
2017-08-27T12:37:48.484Z,2.90
2017-08-27T12:40:14.652Z,3.00
2017-08-27T12:42:40.843Z,2.90
2017-08-27T12:45:07.004Z,2.53
2017-08-27T12:47:33.174Z,2.93
2017-08-27T12:49:59.326Z,2.20
2017-08-27T12:52:25.495Z,3.20
2017-08-27T12:54:51.695Z,2.87
2017-08-27T12:57:17.868Z,3.50
2017-08-27T12:59:44.044Z,3.67
2017-08-27T13:02:10.254Z,2.83
2017-08-27T13:04:36.420Z,2.93
2017-08-27T13:07:02.631Z,3.20
2017-08-27T13:09:28.796Z,3.27
2017-08-27T13:11:54.973Z,3.40
2017-08-27T13:14:21.134Z,3.13
2017-08-27T13:16:47.313Z,3.50
2017-08-27T13:19:13.501Z,2.83
2017-08-27T13:21:39.663Z,2.23
2017-08-27T13:24:05.820Z,2.93
2017-08-27T13:26:32.033Z,3.30
2017-08-27T13:28:58.213Z,2.70
2017-08-27T13:31:24.382Z,2.57
2017-08-27T13:33:50.554Z,1.97
2017-08-27T13:36:16.724Z,2.23
2017-08-27T13:38:42.895Z,2.60
2017-08-27T13:41:09.070Z,2.90
2017-08-27T13:43:35.219Z,2.60
2017-08-27T13:46:01.372Z,2.53
2017-08-27T13:48:27.554Z,2.93
2017-08-27T13:50:54.268Z,3.10
2017-08-27T13:53:20.430Z,2.80
2017-08-27T13:55:46.586Z,2.43
2017-08-27T13:58:12.881Z,2.70
2017-08-27T14:00:39.086Z,2.30
2017-08-27T14:03:05.240Z,3.00
2017-08-27T14:05:31.399Z,2.77
2017-08-27T14:07:57.560Z,2.73
2017-08-27T14:10:23.746Z,2.90
2017-08-27T14:12:49.927Z,2.50
2017-08-27T14:15:16.079Z,2.80
2017-08-27T14:17:42.256Z,2.80
2017-08-27T14:20:08.444Z,2.53
2017-08-27T14:22:34.620Z,2.03
2017-08-27T14:25:00.800Z,3.30
2017-08-27T14:27:26.981Z,2.10
2017-08-27T14:29:53.148Z,2.80
2017-08-27T14:32:19.295Z,2.80
2017-08-27T14:34:45.490Z,2.60
2017-08-27T14:37:11.683Z,2.20
2017-08-27T14:39:37.859Z,2.80
2017-08-27T14:42:04.029Z,2.93
2017-08-27T14:44:30.189Z,2.60
2017-08-27T14:46:56.364Z,3.20
2017-08-27T14:49:22.523Z,2.37
2017-08-27T14:51:48.695Z,3.23
2017-08-27T14:54:14.940Z,2.90
2017-08-27T14:56:41.130Z,2.80
2017-08-27T14:59:07.300Z,2.57
2017-08-27T15:01:33.471Z,2.47
2017-08-27T15:03:59.643Z,2.87
2017-08-27T15:06:25.843Z,2.67
2017-08-27T15:08:52.015Z,2.50
2017-08-27T15:11:18.185Z,2.93
2017-08-27T15:13:44.381Z,2.53
2017-08-27T15:16:10.576Z,3.13
2017-08-27T15:18:36.758Z,2.80
2017-08-27T15:21:02.933Z,33.73
2017-08-27T15:23:29.140Z,5.27
2017-08-27T15:25:55.308Z,6.40
2017-08-27T15:28:21.499Z,6.20
2017-08-27T15:30:47.700Z,38.67
2017-08-27T15:33:13.889Z,3.33
2017-08-27T15:35:40.076Z,18.43
2017-08-27T15:38:06.263Z,5.70
2017-08-27T15:40:32.442Z,7.80
2017-08-27T15:42:58.624Z,48.23
2017-08-27T15:45:24.827Z,2.60
2017-08-27T15:47:51.021Z,9.00
2017-08-27T15:50:17.182Z,5.27
2017-08-27T15:52:43.366Z,4.27
2017-08-27T15:55:09.651Z,3.50
2017-08-27T15:57:35.826Z,2.70
2017-08-27T16:00:01.998Z,3.40
2017-08-27T16:02:28.170Z,2.37
2017-08-27T16:04:54.357Z,2.97
2017-08-27T16:07:20.538Z,2.90
2017-08-27T16:09:46.706Z,2.83
2017-08-27T16:12:12.875Z,2.83
2017-08-27T16:14:39.066Z,2.90
2017-08-27T16:17:05.243Z,3.00
2017-08-27T16:19:31.438Z,2.43
2017-08-27T16:21:57.602Z,2.63
2017-08-27T16:24:23.794Z,2.93
2017-08-27T16:26:49.977Z,4.10
2017-08-27T16:29:16.136Z,4.00
2017-08-27T16:31:42.341Z,3.53
2017-08-27T16:34:08.525Z,4.30
2017-08-27T16:36:34.694Z,3.37
2017-08-27T16:39:00.879Z,3.10
2017-08-27T16:41:27.078Z,3.70
2017-08-27T16:43:53.236Z,3.20
2017-08-27T16:46:19.431Z,4.60
2017-08-27T16:48:45.636Z,3.23
2017-08-27T16:51:11.845Z,3.30
2017-08-27T16:53:38.043Z,3.80
2017-08-27T16:56:04.223Z,3.53
2017-08-27T16:58:30.446Z,4.17
2017-08-27T17:00:56.657Z,3.67
2017-08-27T17:03:22.831Z,3.90
2017-08-27T17:05:49.005Z,4.30
2017-08-27T17:08:15.192Z,4.33
2017-08-27T17:10:41.388Z,7.30
2017-08-27T17:13:07.574Z,5.60
2017-08-27T17:15:34.399Z,3.87
2017-08-27T17:18:00.579Z,4.03
2017-08-27T17:20:26.766Z,3.90
2017-08-27T17:22:52.949Z,4.00
2017-08-27T17:25:19.127Z,3.87
2017-08-27T17:27:45.305Z,3.80
2017-08-27T17:30:11.524Z,6.77
2017-08-27T17:32:37.709Z,4.73
2017-08-27T17:35:03.911Z,6.07
2017-08-27T17:37:30.122Z,6.73
2017-08-27T17:39:56.306Z,6.70
2017-08-27T17:42:22.486Z,9.97
2017-08-27T17:44:48.670Z,8.13
2017-08-27T17:47:14.878Z,4.30
2017-08-27T17:49:41.040Z,4.30
2017-08-27T17:52:07.217Z,5.83
2017-08-27T17:54:33.388Z,6.43
2017-08-27T17:56:59.570Z,7.00
2017-08-27T17:59:25.753Z,4.70
2017-08-27T18:01:51.949Z,4.87
2017-08-27T18:04:18.122Z,4.70
2017-08-27T18:06:44.285Z,5.27
2017-08-27T18:09:10.471Z,5.63
2017-08-27T18:11:36.629Z,5.60
2017-08-27T18:14:02.786Z,5.50
2017-08-27T18:16:28.980Z,6.43
2017-08-27T18:18:55.147Z,5.30
2017-08-27T18:21:21.338Z,6.30
2017-08-27T18:23:47.508Z,5.50
2017-08-27T18:26:13.683Z,6.43
2017-08-27T18:28:39.866Z,6.97
2017-08-27T18:31:06.041Z,8.30
2017-08-27T18:33:32.226Z,5.93
2017-08-27T18:35:58.419Z,7.23
2017-08-27T18:38:24.618Z,5.03
2017-08-27T18:40:50.818Z,5.83
2017-08-27T18:43:17.698Z,5.67
2017-08-27T18:45:46.210Z,7.03
2017-08-27T18:48:12.396Z,5.00
2017-08-27T18:50:38.573Z,5.33
2017-08-27T18:53:04.758Z,5.50
2017-08-27T18:55:30.926Z,6.40
2017-08-27T18:57:57.109Z,6.67
2017-08-27T19:00:23.309Z,7.12
2017-08-27T19:02:53.143Z,6.57
2017-08-27T19:05:25.549Z,9.55
2017-08-27T19:07:51.990Z,8.07
2017-08-27T19:10:18.230Z,10.63
2017-08-27T19:12:45.257Z,8.35
2017-08-27T19:15:11.530Z,9.07
2017-08-27T19:17:41.008Z,5.03
2017-08-27T19:20:08.603Z,6.12
2017-08-27T19:22:35.747Z,5.05
2017-08-27T19:25:03.284Z,5.32
2017-08-27T19:27:30.580Z,8.23
2017-08-27T19:29:57.271Z,9.10
2017-08-27T19:35:06.713Z,6.20
2017-08-27T19:37:32.900Z,5.40
2017-08-27T19:39:59.074Z,7.50
2017-08-27T19:42:25.253Z,5.80
2017-08-27T19:44:51.413Z,7.85
2017-08-27T19:47:17.643Z,6.95
2017-08-27T19:49:43.842Z,7.90
2017-08-27T19:52:10.004Z,5.53
2017-08-27T19:54:36.246Z,7.32
2017-08-27T19:57:02.425Z,8.90
2017-08-27T19:59:28.601Z,7.47
2017-08-27T20:01:54.857Z,7.68
2017-08-27T20:04:21.016Z,8.57
2017-08-27T20:06:47.189Z,6.60
2017-08-27T20:09:13.399Z,7.68
2017-08-27T20:11:39.629Z,9.10
2017-08-27T20:14:05.866Z,9.25
2017-08-27T20:16:32.103Z,6.32
2017-08-27T20:18:58.323Z,6.50
2017-08-27T20:21:24.574Z,5.70
2017-08-27T20:23:50.773Z,7.78
2017-08-27T20:26:17.017Z,6.05
2017-08-27T20:28:43.241Z,6.05
2017-08-27T20:31:09.491Z,6.72
2017-08-27T20:33:35.710Z,5.18
2017-08-27T20:36:01.932Z,6.87
2017-08-27T20:38:28.171Z,8.23
2017-08-27T20:40:54.400Z,8.90
2017-08-27T20:43:20.617Z,8.80
2017-08-27T20:45:46.866Z,9.75
2017-08-27T20:48:13.088Z,8.73
2017-08-27T20:50:39.322Z,9.52
2017-08-27T20:53:05.549Z,10.13
2017-08-27T20:55:31.776Z,6.68
2017-08-27T20:57:58.008Z,6.45
2017-08-27T21:00:24.229Z,5.85
2017-08-27T21:02:50.458Z,7.07
2017-08-27T21:05:16.707Z,7.28
2017-08-27T21:07:42.943Z,6.82
2017-08-27T21:10:09.154Z,6.00
2017-08-27T21:12:35.384Z,7.93
2017-08-27T21:15:01.599Z,6.35
2017-08-27T21:17:27.825Z,7.07
2017-08-27T21:19:54.111Z,6.75
2017-08-27T21:22:20.318Z,6.28
2017-08-27T21:24:46.634Z,6.07
2017-08-27T21:27:12.868Z,7.03
2017-08-27T21:29:39.083Z,6.40
2017-08-27T21:32:05.324Z,5.90
2017-08-27T21:34:31.568Z,5.70
2017-08-27T21:36:57.741Z,8.30
2017-08-27T21:39:24.020Z,7.47
2017-08-27T21:41:50.237Z,6.40
2017-08-27T21:44:16.488Z,9.73
2017-08-27T21:46:43.063Z,6.30
2017-08-27T21:49:09.328Z,7.20
2017-08-27T21:51:35.574Z,7.03
2017-08-27T21:54:01.805Z,9.45
2017-08-27T21:56:28.023Z,10.45
2017-08-27T21:58:54.247Z,11.98
2017-08-27T22:01:20.481Z,6.87
2017-08-27T22:03:46.728Z,7.35
2017-08-27T22:06:12.929Z,6.40
2017-08-27T22:08:39.131Z,9.68
2017-08-27T22:11:05.306Z,10.55
2017-08-27T22:20:15.613Z,6.30
2017-08-27T22:22:41.842Z,7.12
2017-08-27T22:25:08.066Z,8.20
2017-08-27T22:27:34.315Z,6.72
2017-08-27T22:30:01.176Z,7.60
2017-08-27T22:32:27.360Z,6.30
2017-08-27T22:34:53.604Z,7.12
2017-08-27T22:37:19.843Z,8.00
2017-08-27T22:39:46.061Z,6.85
2017-08-27T22:42:12.292Z,7.90
2017-08-27T22:44:38.517Z,7.22
2017-08-27T22:47:04.751Z,5.32
2017-08-27T22:49:30.921Z,6.30
2017-08-27T22:51:57.117Z,7.18
2017-08-27T22:54:23.332Z,6.28
2017-08-27T22:56:49.581Z,6.20
2017-08-27T22:59:15.793Z,5.07
2017-08-27T23:01:42.014Z,5.50
2017-08-27T23:04:08.180Z,7.30
2017-08-27T23:06:34.384Z,5.57
2017-08-27T23:09:00.632Z,5.68
2017-08-27T23:11:26.841Z,5.35
2017-08-27T23:13:53.072Z,6.10
2017-08-27T23:16:19.301Z,5.57
2017-08-27T23:18:45.527Z,5.47
2017-08-27T23:21:11.761Z,5.03
2017-08-27T23:23:37.999Z,5.45
2017-08-27T23:26:04.222Z,4.78
2017-08-27T23:28:30.457Z,4.45
2017-08-27T23:30:56.711Z,6.43
2017-08-27T23:33:22.935Z,5.00
2017-08-27T23:35:49.132Z,5.40
2017-08-27T23:38:15.364Z,4.82
2017-08-27T23:40:41.597Z,4.75
2017-08-27T23:43:07.832Z,5.68
2017-08-27T23:45:34.045Z,4.55
2017-08-27T23:48:00.294Z,5.78
2017-08-27T23:50:26.517Z,5.15
2017-08-27T23:52:52.758Z,4.93
2017-08-27T23:55:18.996Z,5.12
2017-08-27T23:57:45.204Z,6.20
